Jennifer Turecamo — WDD4175 — position and weather

sailwx.info

Track history (hours):
 
Tides and Currents Weather Stations Pressure Air Temp Water Temp Dewpoint Dewpoint Depression Visibility Wind Speed Wind Dir Waves Ship Positions

Jennifer Turecamo

Owner: MORAN TOWING CORPORATION, New Canaan, CT. More information available from US FCC via Universal Licensing System and Coast Guard Vessel Documentation Center.

Last reported at 2017-Oct-22 20:53 UTC. Time now 2017-Oct-22 21:15 UTC.
Position N 40°38' W 074°08'.

Length 40 m; draft 5.3 m.

Type: . MMSI: 367141250.

Date/timePositionNaut miles runAvg speedWind from/ knotsBaromVisibWave heightAir tempDewpointWater temp
2017-Oct-22 20:53N 40°38' W 074°08'0 0.0
2017-Oct-22 20:02N 40°38' W 074°08'0 0.0
2017-Oct-22 19:41N 40°38' W 074°08'0 0.0
2017-Oct-22 19:29N 40°38' W 074°08'0 0.0
2017-Oct-22 19:00N 40°38' W 074°08'1 1.3
2017-Oct-22 18:30N 40°39' W 074°07'1 1.1
2017-Oct-22 17:54N 40°38' W 074°08'0 0.0
2017-Oct-22 17:30N 40°38' W 074°08'0 0.0
2017-Oct-22 17:00N 40°38' W 074°08'0 0.0
2017-Oct-22 16:27N 40°38' W 074°08'0 0.0
2017-Oct-22 16:00N 40°38' W 074°08'0 0.0
2017-Oct-22 15:30N 40°38' W 074°08'0 0.0
2017-Oct-22 14:51N 40°38' W 074°08'0 0.0
2017-Oct-22 14:30N 40°38' W 074°08'0 0.0
2017-Oct-22 13:57N 40°38' W 074°08'0 0.0
2017-Oct-22 13:30N 40°38' W 074°08'0 0.0
2017-Oct-22 12:57N 40°38' W 074°08'0 0.0
2017-Oct-22 12:24N 40°38' W 074°08'0 0.0
2017-Oct-22 11:57N 40°38' W 074°08'0 0.0
2017-Oct-22 11:30N 40°38' W 074°08'0 0.0
2017-Oct-22 11:00N 40°38' W 074°08'0 0.0
2017-Oct-22 10:27N 40°38' W 074°08'0 0.0
2017-Oct-22 09:57N 40°38' W 074°08'0 0.0
2017-Oct-22 09:30N 40°38' W 074°08'0 0.0
2017-Oct-22 09:00N 40°38' W 074°08'0 0.0
2017-Oct-22 08:30N 40°38' W 074°08'0 0.0
2017-Oct-22 07:54N 40°38' W 074°08'0 0.0
2017-Oct-22 07:30N 40°38' W 074°08'0 0.0
2017-Oct-22 07:00N 40°38' W 074°08'0 0.0
2017-Oct-22 06:30N 40°38' W 074°08'0 0.0
2017-Oct-22 06:00N 40°38' W 074°08'0 0.0
2017-Oct-22 05:30N 40°38' W 074°08'0 0.0
2017-Oct-22 05:00N 40°38' W 074°08'0 0.0
2017-Oct-22 04:30N 40°38' W 074°08'0 0.0
2017-Oct-22 04:00N 40°38' W 074°08'0 0.0
2017-Oct-22 03:30N 40°38' W 074°08'0 0.0
2017-Oct-22 03:00N 40°38' W 074°08'0 0.0
2017-Oct-22 02:30N 40°38' W 074°08'0 0.0
2017-Oct-22 02:00N 40°38' W 074°08'0 0.1
2017-Oct-22 01:30N 40°39' W 074°08'0 0.1
2017-Oct-22 01:00N 40°38' W 074°08'0 0.0
2017-Oct-22 00:27N 40°38' W 074°08'0 0.0
2017-Oct-22 00:00N 40°38' W 074°08'0 0.0
2017-Oct-21 23:30N 40°38' W 074°08'0 0.0
2017-Oct-21 23:00N 40°38' W 074°08'0 0.0
2017-Oct-21 22:30N 40°38' W 074°08'0 0.0
2017-Oct-21 21:51N 40°38' W 074°08'0 0.0
2017-Oct-21 21:30N 40°38' W 074°08'0 0.0
2017-Oct-21 20:51N 40°38' W 074°08'0 0.0
2017-Oct-21 20:15N 40°38' W 074°08'0 0.0
2017-Oct-21 20:00N 40°38' W 074°08'0 0.0
2017-Oct-21 19:30N 40°38' W 074°08'0 0.0
2017-Oct-21 19:00N 40°38' W 074°08'0 0.0
2017-Oct-21 18:27N 40°38' W 074°08'1 2.7
2017-Oct-21 17:59N 40°39' W 074°06'4 7.9
2017-Oct-21 17:30N 40°36' W 074°02'1 2.0
2017-Oct-21 16:51N 40°35' W 074°01'0 0.1
2017-Oct-21 16:30N 40°35' W 074°01'0 0.1
2017-Oct-21 15:51N 40°35' W 074°01'0 0.0
2017-Oct-21 15:01N 40°35' W 074°01'0 0.1
2017-Oct-21 14:30N 40°35' W 074°01'0 0.1
2017-Oct-21 13:18N 40°36' W 074°01'0 0.0
2017-Oct-21 13:00N 40°36' W 074°01'0 0.1
2017-Oct-21 12:29N 40°36' W 074°01'3 5.3
2017-Oct-21 12:00N 40°38' W 074°03'1 2.1
2017-Oct-21 11:30N 40°39' W 074°03'1 2.2
2017-Oct-21 10:50N 40°40' W 074°04'0 0.0
2017-Oct-21 10:29N 40°40' W 074°04'0 0.0
2017-Oct-21 09:59N 40°40' W 074°04'0 0.0
2017-Oct-21 09:29N 40°40' W 074°04'0 0.0
2017-Oct-21 08:59N 40°40' W 074°04'0 0.0
2017-Oct-21 08:29N 40°40' W 074°04'0 0.0
2017-Oct-21 07:56N 40°40' W 074°04'0 0.0
2017-Oct-21 07:29N 40°40' W 074°04'0 0.0
2017-Oct-21 06:59N 40°40' W 074°04'0 0.0
2017-Oct-21 06:29N 40°40' W 074°04'0 0.0
2017-Oct-21 05:59N 40°40' W 074°04'0 0.0
2017-Oct-21 05:30N 40°40' W 074°04'0 0.0
2017-Oct-21 05:00N 40°40' W 074°04'0 0.0
2017-Oct-21 04:30N 40°40' W 074°04'0 0.0
2017-Oct-21 04:00N 40°40' W 074°04'0 0.0
2017-Oct-21 03:30N 40°40' W 074°04'0 0.0
2017-Oct-21 03:00N 40°40' W 074°04'0 0.0
2017-Oct-21 02:30N 40°40' W 074°04'0 0.0
2017-Oct-21 02:00N 40°40' W 074°04'0 0.0
2017-Oct-21 01:30N 40°40' W 074°04'0 0.0
2017-Oct-21 01:00N 40°40' W 074°04'0 0.0
2017-Oct-21 00:30N 40°40' W 074°04'0 0.0
2017-Oct-21 00:00N 40°40' W 074°04'0 0.0
2017-Oct-20 23:30N 40°40' W 074°04'1 1.7
2017-Oct-20 23:00N 40°39' W 074°05'3 5.9
2017-Oct-20 22:30N 40°40' W 074°08'2 3.5
2017-Oct-20 22:00N 40°42' W 074°09'2 3.6
2017-Oct-20 21:30N 40°40' W 074°08'2 3.8
2017-Oct-20 21:00N 40°39' W 074°06'4 7.4
2017-Oct-20 20:31N 40°41' W 074°02'1 2.3
2017-Oct-20 20:00N 40°41' W 074°01'4 8.4
2017-Oct-20 19:30N 40°39' W 074°05'2 2.8
2017-Oct-20 18:48N 40°38' W 074°08'0 0.0
2017-Oct-20 18:29N 40°38' W 074°08'0 0.0
2017-Oct-20 17:59N 40°38' W 074°08'0 0.0
2017-Oct-20 17:28N 40°38' W 074°08'0 0.0
2017-Oct-20 17:00N 40°38' W 074°08'0 0.0
2017-Oct-20 16:30N 40°38' W 074°08'0 0.0
2017-Oct-20 16:00N 40°38' W 074°08'0 0.0
2017-Oct-20 15:29N 40°38' W 074°08'0 0.0
2017-Oct-20 14:59N 40°38' W 074°08'0 0.0
2017-Oct-20 14:29N 40°38' W 074°08'0 0.0
2017-Oct-20 13:30N 40°38' W 074°08'0 0.0
2017-Oct-20 13:00N 40°38' W 074°08'0 0.4
2017-Oct-20 12:30N 40°39' W 074°08'3 5.7
2017-Oct-20 12:00N 40°40' W 074°04'0 0.0
2017-Oct-20 11:30N 40°40' W 074°04'0 0.0
2017-Oct-20 11:00N 40°40' W 074°04'0 0.0
2017-Oct-20 10:30N 40°40' W 074°04'0 0.0
2017-Oct-20 10:00N 40°40' W 074°04'0 0.0
2017-Oct-20 09:30N 40°40' W 074°04'0 0.0
2017-Oct-20 09:00N 40°40' W 074°04'1 1.2
2017-Oct-20 08:30N 40°40' W 074°05'0 0.5
2017-Oct-20 08:00N 40°40' W 074°05'1 1.5
2017-Oct-20 07:26N 40°40' W 074°04'0 0.0
2017-Oct-20 06:59N 40°40' W 074°04'0 0.0
2017-Oct-20 06:29N 40°40' W 074°04'0 0.0
2017-Oct-20 05:59N 40°40' W 074°04'0 0.0
2017-Oct-20 05:29N 40°40' W 074°04'0 0.0
2017-Oct-20 04:59N 40°40' W 074°04'0 0.0
2017-Oct-20 04:29N 40°40' W 074°04'0 0.0
2017-Oct-20 03:59N 40°40' W 074°04'0 0.0
2017-Oct-20 03:29N 40°40' W 074°04'1 1.5
2017-Oct-20 03:01N 40°40' W 074°03'2 4.8
2017-Oct-20 02:30N 40°41' W 074°01'1 2.2
2017-Oct-20 02:00N 40°41' W 074°02'1 2.2
2017-Oct-20 01:30N 40°41' W 074°01'0 0.6
2017-Oct-20 01:00N 40°41' W 074°01'3 6.9
2017-Oct-20 00:30N 40°39' W 074°05'3 6.5
2017-Oct-20 00:00N 40°39' W 074°09'3 5.6
2017-Oct-19 23:30N 40°41' W 074°08'1 1.7
2017-Oct-19 23:00N 40°42' W 074°09'0 0.2
2017-Oct-19 22:30N 40°42' W 074°09'0 0.0
2017-Oct-19 21:59N 40°42' W 074°09'0 0.0
2017-Oct-19 21:30N 40°42' W 074°09'0 0.0
2017-Oct-19 21:00N 40°42' W 074°09'0 0.0
2017-Oct-19 20:30N 40°42' W 074°09'0 0.0
2017-Oct-19 19:59N 40°42' W 074°09'0 0.0
2017-Oct-19 19:30N 40°42' W 074°09'3 5.8
2017-Oct-19 19:00N 40°39' W 074°09'2 3.2
2017-Oct-19 18:30N 40°40' W 074°08'1 1.8
2017-Oct-19 18:00N 40°41' W 074°09'2 3.2
2017-Oct-19 17:30N 40°39' W 074°09'1 2.4
2017-Oct-19 17:00N 40°38' W 074°08'0 0.0
2017-Oct-19 16:30N 40°38' W 074°08'0 0.0
2017-Oct-19 16:00N 40°38' W 074°08'0 0.0
2017-Oct-19 15:30N 40°38' W 074°08'0 0.0
2017-Oct-19 15:00N 40°38' W 074°08'0 0.0
2017-Oct-19 14:30N 40°38' W 074°08'0 0.0
2017-Oct-19 14:00N 40°38' W 074°08'0 0.0
2017-Oct-19 13:30N 40°38' W 074°08'0 0.0
2017-Oct-19 13:00N 40°38' W 074°08'0 0.0
2017-Oct-19 12:30N 40°38' W 074°08'0 0.0
2017-Oct-19 12:00N 40°38' W 074°08'0 0.0
2017-Oct-19 11:30N 40°38' W 074°08'0 0.0
2017-Oct-19 11:00N 40°38' W 074°08'0 0.0
2017-Oct-19 10:30N 40°38' W 074°08'1 2.6
2017-Oct-19 10:00N 40°40' W 074°09'0 0.3
2017-Oct-19 09:30N 40°40' W 074°09'0 0.1
2017-Oct-19 09:00N 40°40' W 074°09'1 1.1
2017-Oct-19 08:30N 40°39' W 074°09'1 1.9
2017-Oct-19 07:54N 40°38' W 074°08'0 0.0
2017-Oct-19 07:30N 40°38' W 074°08'0 0.1
2017-Oct-19 07:00N 40°39' W 074°08'0 0.1
2017-Oct-19 06:30N 40°38' W 074°08'0 0.0
2017-Oct-19 06:00N 40°38' W 074°08'0 0.0
2017-Oct-19 05:30N 40°38' W 074°08'0 0.0
2017-Oct-19 05:00N 40°38' W 074°08'0 0.0
2017-Oct-19 04:30N 40°38' W 074°08'1 2.6
2017-Oct-19 04:00N 40°40' W 074°09'2 4.3
2017-Oct-19 03:30N 40°42' W 074°09'0 0.9
2017-Oct-19 02:59N 40°42' W 074°08'2 4.1
2017-Oct-19 02:30N 40°40' W 074°09'1 2.1
2017-Oct-19 02:00N 40°39' W 074°09'3 5.4
2017-Oct-19 01:30N 40°39' W 074°05'2 4.8
2017-Oct-19 01:01N 40°40' W 074°03'2 4.4
2017-Oct-19 00:31N 40°41' W 074°00'0 0.0
2017-Oct-19 00:00N 40°41' W 074°00'0 0.5
2017-Oct-18 23:31N 40°41' W 074°01'0 0.2
2017-Oct-18 23:00N 40°41' W 074°01'3 5.5
2017-Oct-18 22:30N 40°40' W 074°04'3 6.8
2017-Oct-18 22:00N 40°38' W 074°08'0 0.0
2017-Oct-18 21:30N 40°38' W 074°08'0 0.0
2017-Oct-18 21:01N 40°38' W 074°08'0 0.0
2017-Oct-18 20:30N 40°38' W 074°08'0 0.0
2017-Oct-18 20:00N 40°38' W 074°08'0 0.0
2017-Oct-18 19:30N 40°38' W 074°08'0 0.0
2017-Oct-18 18:30N 40°38' W 074°08'0 0.0
2017-Oct-18 18:00N 40°38' W 074°08'0 0.0
2017-Oct-18 17:30N 40°38' W 074°08'0 0.0
2017-Oct-18 17:00N 40°38' W 074°08'0 0.0
2017-Oct-18 16:30N 40°38' W 074°08'0 0.0
2017-Oct-18 16:00N 40°38' W 074°08'0 0.0
2017-Oct-18 15:31N 40°38' W 074°08'0 0.0
2017-Oct-18 15:00N 40°38' W 074°08'0 0.0
2017-Oct-18 14:00N 40°38' W 074°08'0 0.0
2017-Oct-18 13:30N 40°38' W 074°08'0 0.0
2017-Oct-18 13:01N 40°38' W 074°08'0 0.0
2017-Oct-18 12:30N 40°38' W 074°08'0 0.0
2017-Oct-18 12:00N 40°38' W 074°08'0 0.0
2017-Oct-18 11:30N 40°38' W 074°08'0 0.0
2017-Oct-18 11:00N 40°38' W 074°08'0 0.0
2017-Oct-18 10:31N 40°38' W 074°08'3 5.3
2017-Oct-18 10:01N 40°39' W 074°11'0 0.3
2017-Oct-18 09:30N 40°39' W 074°11'3 5.7
2017-Oct-18 09:00N 40°39' W 074°07'0 0.5
2017-Oct-18 08:30N 40°39' W 074°08'0 0.2
2017-Oct-18 08:00N 40°38' W 074°08'0 0.0
2017-Oct-18 07:31N 40°38' W 074°08'0 0.0
2017-Oct-18 07:00N 40°38' W 074°08'0 0.0
2017-Oct-18 06:30N 40°38' W 074°08'0 0.0
2017-Oct-18 06:00N 40°38' W 074°08'0 0.0
2017-Oct-18 05:30N 40°38' W 074°08'0 0.0
2017-Oct-18 05:00N 40°38' W 074°08'0 0.0
2017-Oct-18 04:30N 40°38' W 074°08'0 0.0
2017-Oct-18 04:00N 40°38' W 074°08'0 0.0
2017-Oct-18 03:30N 40°38' W 074°08'0 0.0
2017-Oct-18 03:01N 40°38' W 074°08'0 0.0
2017-Oct-18 02:30N 40°38' W 074°08'0 0.0
2017-Oct-18 02:00N 40°38' W 074°08'0 0.0
2017-Oct-18 01:31N 40°38' W 074°08'0 0.0
2017-Oct-18 01:01N 40°38' W 074°08'0 0.0
2017-Oct-18 00:30N 40°38' W 074°08'0 0.0
2017-Oct-18 00:01N 40°38' W 074°08'0 0.0
2017-Oct-17 23:30N 40°38' W 074°08'4 8.0
2017-Oct-17 23:00N 40°40' W 074°03'2 4.8
2017-Oct-17 22:30N 40°41' W 074°00'1 2.2
2017-Oct-17 22:00N 40°41' W 074°02'4 8.0
2017-Oct-17 21:30N 40°39' W 074°06'2 4.2
2017-Oct-17 21:00N 40°40' W 074°09'2 3.9
2017-Oct-17 20:30N 40°41' W 074°08'1 1.5
2017-Oct-17 20:00N 40°42' W 074°09'0 0.1
2017-Oct-17 19:30N 40°42' W 074°09'0 0.0
2017-Oct-17 19:00N 40°42' W 074°09'0 0.0
2017-Oct-17 18:30N 40°42' W 074°09'0 0.0
2017-Oct-17 18:00N 40°42' W 074°09'2 3.8
2017-Oct-17 17:30N 40°40' W 074°08'2 3.1
2017-Oct-17 16:59N 40°38' W 074°09'2 4.8
2017-Oct-17 16:30N 40°39' W 074°06'2 4.1
2017-Oct-17 16:00N 40°38' W 074°03'3 6.6
2017-Oct-17 15:30N 40°39' W 074°08'0 0.4
2017-Oct-17 15:00N 40°38' W 074°08'0 0.0
2017-Oct-17 14:30N 40°38' W 074°08'0 0.0
2017-Oct-17 14:01N 40°38' W 074°08'0 0.0
2017-Oct-17 13:31N 40°38' W 074°08'0 0.0
2017-Oct-17 13:01N 40°38' W 074°08'0 0.0
2017-Oct-17 12:30N 40°38' W 074°08'0 0.0
2017-Oct-17 12:00N 40°38' W 074°08'0 0.0
2017-Oct-17 11:30N 40°38' W 074°08'2 3.2
2017-Oct-17 11:00N 40°40' W 074°08'1 1.6
2017-Oct-17 10:30N 40°41' W 074°09'0 0.2
2017-Oct-17 10:00N 40°41' W 074°09'2 4.6
2017-Oct-17 09:30N 40°38' W 074°08'0 0.0
2017-Oct-17 09:00N 40°38' W 074°08'0 0.0
2017-Oct-17 08:30N 40°38' W 074°08'0 0.0
2017-Oct-17 08:00N 40°38' W 074°08'0 0.0
2017-Oct-17 07:00N 40°38' W 074°08'0 0.0
2017-Oct-17 06:31N 40°38' W 074°08'0 0.0
2017-Oct-17 06:00N 40°38' W 074°08'0 0.0
2017-Oct-17 05:30N 40°38' W 074°08'0 0.0
2017-Oct-17 05:00N 40°38' W 074°08'0 0.0
2017-Oct-17 04:30N 40°38' W 074°08'0 0.0
2017-Oct-17 04:00N 40°38' W 074°08'0 0.0
2017-Oct-17 03:30N 40°38' W 074°08'0 0.0
2017-Oct-17 03:01N 40°38' W 074°08'0 0.0
2017-Oct-17 02:30N 40°38' W 074°08'0 0.0
2017-Oct-17 02:00N 40°38' W 074°08'0 0.0
2017-Oct-17 01:30N 40°38' W 074°08'0 0.0
2017-Oct-17 01:00N 40°38' W 074°08'1 2.1
2017-Oct-17 00:30N 40°39' W 074°06'4 8.4
2017-Oct-17 00:01N 40°41' W 074°02'1 2.4
2017-Oct-16 23:30N 40°41' W 074°00'3 5.2
2017-Oct-16 23:01N 40°40' W 074°03'4 8.3
2017-Oct-16 22:30N 40°39' W 074°08'3 6.3
2017-Oct-16 22:00N 40°42' W 074°09'0 0.3
2017-Oct-16 21:30N 40°42' W 074°08'3 4.2
2017-Oct-16 20:44N 40°38' W 074°08'0 0.0
2017-Oct-16 20:21N 40°38' W 074°08'0 0.0
2017-Oct-16 20:00N 40°38' W 074°08'0 0.0
2017-Oct-16 19:30N 40°38' W 074°08'0 0.0
2017-Oct-16 19:00N 40°38' W 074°08'3 5.3
2017-Oct-16 18:30N 40°39' W 074°04'1 1.4
2017-Oct-16 18:01N 40°40' W 074°04'1 1.5
2017-Oct-16 17:30N 40°39' W 074°04'1 1.6
2017-Oct-16 17:00N 40°40' W 074°04'0 0.0
2017-Oct-16 16:31N 40°40' W 074°04'4 7.6
2017-Oct-16 16:00N 40°39' W 074°09'1 1.7
2017-Oct-16 15:28N 40°40' W 074°09'1 2.2
2017-Oct-16 15:00N 40°39' W 074°09'2 4.8
2017-Oct-16 14:30N 40°39' W 074°06'1 1.5
2017-Oct-16 13:30N 40°38' W 074°08'0 0.0
2017-Oct-16 13:00N 40°38' W 074°08'0 0.0
2017-Oct-16 12:30N 40°38' W 074°08'0 0.0
2017-Oct-16 12:00N 40°38' W 074°08'0 0.0
2017-Oct-16 11:30N 40°38' W 074°08'0 0.0
2017-Oct-16 11:01N 40°38' W 074°08'0 0.0
2017-Oct-16 10:30N 40°38' W 074°08'0 0.0
2017-Oct-16 10:00N 40°38' W 074°08'0 0.1
2017-Oct-16 09:27N 40°38' W 074°08'0 0.0
2017-Oct-16 09:00N 40°38' W 074°08'0 0.0
2017-Oct-16 08:27N 40°38' W 074°08'0 0.0
2017-Oct-16 08:00N 40°38' W 074°08'0 0.0
2017-Oct-16 07:30N 40°38' W 074°08'0 0.0
2017-Oct-16 07:00N 40°38' W 074°08'0 0.0
2017-Oct-16 06:30N 40°38' W 074°08'0 0.0
2017-Oct-16 06:00N 40°38' W 074°08'0 0.0
2017-Oct-16 05:27N 40°38' W 074°08'0 0.0
2017-Oct-16 05:00N 40°38' W 074°08'0 0.0
2017-Oct-16 04:30N 40°38' W 074°08'0 0.0
2017-Oct-16 04:00N 40°38' W 074°08'0 0.0
2017-Oct-16 03:31N 40°38' W 074°08'0 0.0
2017-Oct-16 03:00N 40°38' W 074°08'0 0.0
2017-Oct-16 02:30N 40°38' W 074°08'0 0.0
2017-Oct-16 02:00N 40°38' W 074°08'0 0.0
2017-Oct-16 01:30N 40°38' W 074°08'0 0.0
2017-Oct-16 01:00N 40°38' W 074°08'0 0.0
2017-Oct-16 00:30N 40°38' W 074°08'0 0.0
2017-Oct-16 00:00N 40°38' W 074°08'0 0.0
2017-Oct-15 23:30N 40°38' W 074°08'0 0.0
2017-Oct-15 23:00N 40°38' W 074°08'0 0.0
2017-Oct-15 22:30N 40°38' W 074°08'0 0.0
2017-Oct-15 22:00N 40°38' W 074°08'0 0.2
2017-Oct-15 21:30N 40°39' W 074°08'4 8.8
2017-Oct-15 21:01N 40°40' W 074°02'0 0.1
2017-Oct-15 20:30N 40°40' W 074°02'0 0.0
2017-Oct-15 19:54N 40°40' W 074°02'0 0.0
2017-Oct-15 19:30N 40°40' W 074°02'0 0.0
2017-Oct-15 19:00N 40°40' W 074°02'0 0.1
2017-Oct-15 18:30N 40°40' W 074°02'0 0.2
2017-Oct-15 18:00N 40°40' W 074°02'0 0.2
2017-Oct-15 17:30N 40°40' W 074°02'0 0.1
2017-Oct-15 17:00N 40°40' W 074°02'0 0.1
2017-Oct-15 16:30N 40°40' W 074°02'0 0.1
2017-Oct-15 16:00N 40°40' W 074°02'0 0.2
2017-Oct-15 15:28N 40°40' W 074°02'3 6.0
2017-Oct-15 15:00N 40°39' W 074°06'2 1.6
2017-Oct-15 13:58N 40°38' W 074°08'0 0.0
2017-Oct-15 13:28N 40°38' W 074°08'0 0.0
2017-Oct-15 12:58N 40°38' W 074°08'0 0.0
2017-Oct-15 12:28N 40°38' W 074°08'0 0.0
2017-Oct-15 11:58N 40°38' W 074°08'0 0.0
2017-Oct-15 11:28N 40°38' W 074°08'0 0.0
2017-Oct-15 10:58N 40°38' W 074°08'0 0.0
2017-Oct-15 10:25N 40°38' W 074°08'0 0.0
2017-Oct-15 09:58N 40°38' W 074°08'0 0.0
2017-Oct-15 09:28N 40°38' W 074°08'0 0.0
2017-Oct-15 08:58N 40°38' W 074°08'0 0.0
2017-Oct-15 08:28N 40°38' W 074°08'0 0.0
2017-Oct-15 07:58N 40°38' W 074°08'0 0.0
2017-Oct-15 07:28N 40°38' W 074°08'0 0.0
2017-Oct-15 06:55N 40°38' W 074°08'0 0.0
2017-Oct-15 06:28N 40°38' W 074°08'0 0.0
2017-Oct-15 05:58N 40°38' W 074°08'0 0.0
2017-Oct-15 05:28N 40°38' W 074°08'0 0.0
2017-Oct-15 04:58N 40°38' W 074°08'0 0.0
2017-Oct-15 04:28N 40°38' W 074°08'0 0.0
2017-Oct-15 03:58N 40°38' W 074°08'0 0.0
2017-Oct-15 03:28N 40°38' W 074°08'0 0.0
2017-Oct-15 02:58N 40°38' W 074°08'0 0.0
2017-Oct-15 02:25N 40°38' W 074°08'0 0.0
2017-Oct-15 01:58N 40°38' W 074°08'0 0.0
2017-Oct-15 01:25N 40°38' W 074°08'0 0.0
2017-Oct-15 00:58N 40°38' W 074°08'0 0.0
2017-Oct-15 00:22N 40°38' W 074°08'0 0.0
2017-Oct-14 23:55N 40°38' W 074°08'0 0.0
2017-Oct-14 23:28N 40°38' W 074°08'0 0.0
2017-Oct-14 22:58N 40°38' W 074°08'0 0.0
2017-Oct-14 22:28N 40°38' W 074°08'0 0.0
2017-Oct-14 21:58N 40°38' W 074°08'0 0.0
2017-Oct-14 21:28N 40°38' W 074°08'0 0.0
2017-Oct-14 20:49N 40°38' W 074°08'0 0.0
2017-Oct-14 20:28N 40°38' W 074°08'0 0.0
2017-Oct-14 19:58N 40°38' W 074°08'0 0.0
2017-Oct-14 19:25N 40°38' W 074°08'0 0.0
2017-Oct-14 18:55N 40°38' W 074°08'0 0.0
2017-Oct-14 18:28N 40°38' W 074°08'0 0.0
2017-Oct-14 17:58N 40°38' W 074°08'0 0.0
2017-Oct-14 17:28N 40°38' W 074°08'2 1.7
2017-Oct-14 16:30N 40°40' W 074°08'1 2.6
2017-Oct-14 16:00N 40°41' W 074°09'0 0.1
2017-Oct-14 15:28N 40°41' W 074°09'0 0.0
2017-Oct-14 14:59N 40°41' W 074°09'3 5.4
2017-Oct-14 14:30N 40°39' W 074°08'0 0.5
2017-Oct-14 13:59N 40°38' W 074°08'0 0.0
2017-Oct-14 13:29N 40°38' W 074°08'0 0.0
2017-Oct-14 12:59N 40°38' W 074°08'0 0.0
2017-Oct-14 12:29N 40°38' W 074°08'0 0.0
2017-Oct-14 11:56N 40°38' W 074°08'0 0.0
2017-Oct-14 11:29N 40°38' W 074°08'0 0.0
2017-Oct-14 10:59N 40°38' W 074°08'0 0.0
2017-Oct-14 10:29N 40°38' W 074°08'0 0.0
2017-Oct-14 09:59N 40°38' W 074°08'0 0.0
2017-Oct-14 09:29N 40°38' W 074°08'0 0.0
2017-Oct-14 08:59N 40°38' W 074°08'0 0.0
2017-Oct-14 08:29N 40°38' W 074°08'0 0.0
2017-Oct-14 07:59N 40°38' W 074°08'0 0.0
2017-Oct-14 07:29N 40°38' W 074°08'0 0.0
2017-Oct-14 06:56N 40°38' W 074°08'0 0.0
2017-Oct-14 06:29N 40°38' W 074°08'0 0.0
2017-Oct-14 05:59N 40°38' W 074°08'0 0.0
2017-Oct-14 05:29N 40°38' W 074°08'0 0.0
2017-Oct-14 04:59N 40°38' W 074°08'0 0.0
2017-Oct-14 04:29N 40°38' W 074°08'0 0.0
2017-Oct-14 03:59N 40°38' W 074°08'0 0.0
2017-Oct-14 03:29N 40°38' W 074°08'0 0.0
2017-Oct-14 02:56N 40°38' W 074°08'0 0.0
2017-Oct-14 02:23N 40°38' W 074°08'0 0.0
2017-Oct-14 01:59N 40°38' W 074°08'0 0.0
2017-Oct-14 01:29N 40°38' W 074°08'0 0.0
2017-Oct-14 00:59N 40°38' W 074°08'0 0.0
2017-Oct-14 00:29N 40°38' W 074°08'0 0.0
2017-Oct-13 23:59N 40°38' W 074°08'0 0.0
2017-Oct-13 23:29N 40°38' W 074°08'0 0.0
2017-Oct-13 22:59N 40°38' W 074°08'0 0.0
2017-Oct-13 22:29N 40°38' W 074°08'0 0.0
2017-Oct-13 21:59N 40°38' W 074°08'0 0.0
2017-Oct-13 21:29N 40°38' W 074°08'0 0.0
2017-Oct-13 20:56N 40°38' W 074°08'0 0.0
2017-Oct-13 20:26N 40°38' W 074°08'0 0.0
2017-Oct-13 19:59N 40°38' W 074°08'0 0.0
2017-Oct-13 19:29N 40°38' W 074°08'0 0.0
2017-Oct-13 18:50N 40°38' W 074°08'0 0.0
2017-Oct-13 18:26N 40°38' W 074°08'0 0.0
2017-Oct-13 17:59N 40°38' W 074°08'0 0.0
2017-Oct-13 17:29N 40°38' W 074°08'1 1.1
2017-Oct-13 17:00N 40°38' W 074°08'2 4.1
2017-Oct-13 16:30N 40°41' W 074°08'1 1.4
2017-Oct-13 15:59N 40°41' W 074°09'2 4.5
2017-Oct-13 15:29N 40°39' W 074°09'1 1.7
2017-Oct-13 15:00N 40°38' W 074°08'0 0.5
2017-Oct-13 14:30N 40°39' W 074°07'3 5.1
2017-Oct-13 14:00N 40°39' W 074°04'1 1.6
2017-Oct-13 13:27N 40°39' W 074°03'3 6.9
2017-Oct-13 13:00N 40°39' W 074°07'2 4.1
2017-Oct-13 12:30N 40°39' W 074°05'1 3.0
2017-Oct-13 12:00N 40°39' W 074°06'1 2.1
2017-Oct-13 11:30N 40°38' W 074°08'0 0.0
2017-Oct-13 10:56N 40°38' W 074°08'0 0.0
2017-Oct-13 10:29N 40°38' W 074°08'0 0.0
2017-Oct-13 10:00N 40°38' W 074°08'0 0.0
2017-Oct-13 09:27N 40°38' W 074°08'0 0.0
2017-Oct-13 09:00N 40°38' W 074°08'1 2.5
2017-Oct-13 08:30N 40°40' W 074°09'1 2.3
2017-Oct-13 08:00N 40°41' W 074°09'2 3.3
2017-Oct-13 07:30N 40°39' W 074°09'1 1.9
2017-Oct-13 07:00N 40°38' W 074°08'0 0.0
2017-Oct-13 06:25N 40°38' W 074°08'0 0.0
2017-Oct-13 05:58N 40°38' W 074°08'0 0.0
2017-Oct-13 05:28N 40°38' W 074°08'0 0.0
2017-Oct-13 04:58N 40°38' W 074°08'0 0.0
2017-Oct-13 04:25N 40°38' W 074°08'0 0.0
2017-Oct-13 03:58N 40°38' W 074°08'0 0.0
2017-Oct-13 03:28N 40°38' W 074°08'0 0.0
2017-Oct-13 02:55N 40°38' W 074°08'2 4.9
2017-Oct-13 02:30N 40°39' W 074°05'2 3.2
2017-Oct-13 01:57N 40°39' W 074°03'0 0.0
2017-Oct-13 01:26N 40°39' W 074°03'0 0.0
2017-Oct-13 00:57N 40°39' W 074°03'0 0.0
2017-Oct-13 00:30N 40°39' W 074°03'0 0.0
2017-Oct-12 23:57N 40°39' W 074°03'0 0.0
2017-Oct-12 23:30N 40°39' W 074°03'0 0.0
2017-Oct-12 22:59N 40°39' W 074°03'0 0.0
2017-Oct-12 22:30N 40°39' W 074°03'0 0.1
2017-Oct-12 21:59N 40°39' W 074°03'0 0.1
2017-Oct-12 21:30N 40°40' W 074°03'1 2.5
2017-Oct-12 21:00N 40°40' W 074°02'  
Track history (hours):
 
Tides and Currents Weather Stations Pressure Air Temp Water Temp Dewpoint Dewpoint Depression Visibility Wind Speed Wind Dir Waves Ship Positions

Jennifer Turecamo

Owner: MORAN TOWING CORPORATION, New Canaan, CT. More information available from US FCC via Universal Licensing System and Coast Guard Vessel Documentation Center.

Last reported at 2017-Oct-22 20:53 UTC. Time now 2017-Oct-22 21:15 UTC.
Position N 40°38' W 074°08'.

Length 40 m; draft 5.3 m.

Type: . MMSI: 367141250.

Date/timePositionNaut miles runAvg speedWind from/ knotsBaromVisibWave heightAir tempDewpointWater temp
2017-Oct-22 20:53N 40°38' W 074°08'0 0.0
2017-Oct-22 20:02N 40°38' W 074°08'0 0.0
2017-Oct-22 19:41N 40°38' W 074°08'0 0.0
2017-Oct-22 19:29N 40°38' W 074°08'0 0.0
2017-Oct-22 19:00N 40°38' W 074°08'1 1.3
2017-Oct-22 18:30N 40°39' W 074°07'1 1.1
2017-Oct-22 17:54N 40°38' W 074°08'0 0.0
2017-Oct-22 17:30N 40°38' W 074°08'0 0.0
2017-Oct-22 17:00N 40°38' W 074°08'0 0.0
2017-Oct-22 16:27N 40°38' W 074°08'0 0.0
2017-Oct-22 16:00N 40°38' W 074°08'0 0.0
2017-Oct-22 15:30N 40°38' W 074°08'0 0.0
2017-Oct-22 14:51N 40°38' W 074°08'0 0.0
2017-Oct-22 14:30N 40°38' W 074°08'0 0.0
2017-Oct-22 13:57N 40°38' W 074°08'0 0.0
2017-Oct-22 13:30N 40°38' W 074°08'0 0.0
2017-Oct-22 12:57N 40°38' W 074°08'0 0.0
2017-Oct-22 12:24N 40°38' W 074°08'0 0.0
2017-Oct-22 11:57N 40°38' W 074°08'0 0.0
2017-Oct-22 11:30N 40°38' W 074°08'0 0.0
2017-Oct-22 11:00N 40°38' W 074°08'0 0.0
2017-Oct-22 10:27N 40°38' W 074°08'0 0.0
2017-Oct-22 09:57N 40°38' W 074°08'0 0.0
2017-Oct-22 09:30N 40°38' W 074°08'0 0.0
2017-Oct-22 09:00N 40°38' W 074°08'0 0.0
2017-Oct-22 08:30N 40°38' W 074°08'0 0.0
2017-Oct-22 07:54N 40°38' W 074°08'0 0.0
2017-Oct-22 07:30N 40°38' W 074°08'0 0.0
2017-Oct-22 07:00N 40°38' W 074°08'0 0.0
2017-Oct-22 06:30N 40°38' W 074°08'0 0.0
2017-Oct-22 06:00N 40°38' W 074°08'0 0.0
2017-Oct-22 05:30N 40°38' W 074°08'0 0.0
2017-Oct-22 05:00N 40°38' W 074°08'0 0.0
2017-Oct-22 04:30N 40°38' W 074°08'0 0.0
2017-Oct-22 04:00N 40°38' W 074°08'0 0.0
2017-Oct-22 03:30N 40°38' W 074°08'0 0.0
2017-Oct-22 03:00N 40°38' W 074°08'0 0.0
2017-Oct-22 02:30N 40°38' W 074°08'0 0.0
2017-Oct-22 02:00N 40°38' W 074°08'0 0.1
2017-Oct-22 01:30N 40°39' W 074°08'0 0.1
2017-Oct-22 01:00N 40°38' W 074°08'0 0.0
2017-Oct-22 00:27N 40°38' W 074°08'0 0.0
2017-Oct-22 00:00N 40°38' W 074°08'0 0.0
2017-Oct-21 23:30N 40°38' W 074°08'0 0.0
2017-Oct-21 23:00N 40°38' W 074°08'0 0.0
2017-Oct-21 22:30N 40°38' W 074°08'0 0.0
2017-Oct-21 21:51N 40°38' W 074°08'0 0.0
2017-Oct-21 21:30N 40°38' W 074°08'0 0.0
2017-Oct-21 20:51N 40°38' W 074°08'0 0.0
2017-Oct-21 20:15N 40°38' W 074°08'0 0.0
2017-Oct-21 20:00N 40°38' W 074°08'0 0.0
2017-Oct-21 19:30N 40°38' W 074°08'0 0.0
2017-Oct-21 19:00N 40°38' W 074°08'0 0.0
2017-Oct-21 18:27N 40°38' W 074°08'1 2.7
2017-Oct-21 17:59N 40°39' W 074°06'4 7.9
2017-Oct-21 17:30N 40°36' W 074°02'1 2.0
2017-Oct-21 16:51N 40°35' W 074°01'0 0.1
2017-Oct-21 16:30N 40°35' W 074°01'0 0.1
2017-Oct-21 15:51N 40°35' W 074°01'0 0.0
2017-Oct-21 15:01N 40°35' W 074°01'0 0.1
2017-Oct-21 14:30N 40°35' W 074°01'0 0.1
2017-Oct-21 13:18N 40°36' W 074°01'0 0.0
2017-Oct-21 13:00N 40°36' W 074°01'0 0.1
2017-Oct-21 12:29N 40°36' W 074°01'3 5.3
2017-Oct-21 12:00N 40°38' W 074°03'1 2.1
2017-Oct-21 11:30N 40°39' W 074°03'1 2.2
2017-Oct-21 10:50N 40°40' W 074°04'0 0.0
2017-Oct-21 10:29N 40°40' W 074°04'0 0.0
2017-Oct-21 09:59N 40°40' W 074°04'0 0.0
2017-Oct-21 09:29N 40°40' W 074°04'0 0.0
2017-Oct-21 08:59N 40°40' W 074°04'0 0.0
2017-Oct-21 08:29N 40°40' W 074°04'0 0.0
2017-Oct-21 07:56N 40°40' W 074°04'0 0.0
2017-Oct-21 07:29N 40°40' W 074°04'0 0.0
2017-Oct-21 06:59N 40°40' W 074°04'0 0.0
2017-Oct-21 06:29N 40°40' W 074°04'0 0.0
2017-Oct-21 05:59N 40°40' W 074°04'0 0.0
2017-Oct-21 05:30N 40°40' W 074°04'0 0.0
2017-Oct-21 05:00N 40°40' W 074°04'0 0.0
2017-Oct-21 04:30N 40°40' W 074°04'0 0.0
2017-Oct-21 04:00N 40°40' W 074°04'0 0.0
2017-Oct-21 03:30N 40°40' W 074°04'0 0.0
2017-Oct-21 03:00N 40°40' W 074°04'0 0.0
2017-Oct-21 02:30N 40°40' W 074°04'0 0.0
2017-Oct-21 02:00N 40°40' W 074°04'0 0.0
2017-Oct-21 01:30N 40°40' W 074°04'0 0.0
2017-Oct-21 01:00N 40°40' W 074°04'0 0.0
2017-Oct-21 00:30N 40°40' W 074°04'0 0.0
2017-Oct-21 00:00N 40°40' W 074°04'0 0.0
2017-Oct-20 23:30N 40°40' W 074°04'1 1.7
2017-Oct-20 23:00N 40°39' W 074°05'3 5.9
2017-Oct-20 22:30N 40°40' W 074°08'2 3.5
2017-Oct-20 22:00N 40°42' W 074°09'2 3.6
2017-Oct-20 21:30N 40°40' W 074°08'2 3.8
2017-Oct-20 21:00N 40°39' W 074°06'4 7.4
2017-Oct-20 20:31N 40°41' W 074°02'1 2.3
2017-Oct-20 20:00N 40°41' W 074°01'4 8.4
2017-Oct-20 19:30N 40°39' W 074°05'2 2.8
2017-Oct-20 18:48N 40°38' W 074°08'0 0.0
2017-Oct-20 18:29N 40°38' W 074°08'0 0.0
2017-Oct-20 17:59N 40°38' W 074°08'0 0.0
2017-Oct-20 17:28N 40°38' W 074°08'0 0.0
2017-Oct-20 17:00N 40°38' W 074°08'0 0.0
2017-Oct-20 16:30N 40°38' W 074°08'0 0.0
2017-Oct-20 16:00N 40°38' W 074°08'0 0.0
2017-Oct-20 15:29N 40°38' W 074°08'0 0.0
2017-Oct-20 14:59N 40°38' W 074°08'0 0.0
2017-Oct-20 14:29N 40°38' W 074°08'0 0.0
2017-Oct-20 13:30N 40°38' W 074°08'0 0.0
2017-Oct-20 13:00N 40°38' W 074°08'0 0.4
2017-Oct-20 12:30N 40°39' W 074°08'3 5.7
2017-Oct-20 12:00N 40°40' W 074°04'0 0.0
2017-Oct-20 11:30N 40°40' W 074°04'0 0.0
2017-Oct-20 11:00N 40°40' W 074°04'0 0.0
2017-Oct-20 10:30N 40°40' W 074°04'0 0.0
2017-Oct-20 10:00N 40°40' W 074°04'0 0.0
2017-Oct-20 09:30N 40°40' W 074°04'0 0.0
2017-Oct-20 09:00N 40°40' W 074°04'1 1.2
2017-Oct-20 08:30N 40°40' W 074°05'0 0.5
2017-Oct-20 08:00N 40°40' W 074°05'1 1.5
2017-Oct-20 07:26N 40°40' W 074°04'0 0.0
2017-Oct-20 06:59N 40°40' W 074°04'0 0.0
2017-Oct-20 06:29N 40°40' W 074°04'0 0.0
2017-Oct-20 05:59N 40°40' W 074°04'0 0.0
2017-Oct-20 05:29N 40°40' W 074°04'0 0.0
2017-Oct-20 04:59N 40°40' W 074°04'0 0.0
2017-Oct-20 04:29N 40°40' W 074°04'0 0.0
2017-Oct-20 03:59N 40°40' W 074°04'0 0.0
2017-Oct-20 03:29N 40°40' W 074°04'1 1.5
2017-Oct-20 03:01N 40°40' W 074°03'2 4.8
2017-Oct-20 02:30N 40°41' W 074°01'1 2.2
2017-Oct-20 02:00N 40°41' W 074°02'1 2.2
2017-Oct-20 01:30N 40°41' W 074°01'0 0.6
2017-Oct-20 01:00N 40°41' W 074°01'3 6.9
2017-Oct-20 00:30N 40°39' W 074°05'3 6.5
2017-Oct-20 00:00N 40°39' W 074°09'3 5.6
2017-Oct-19 23:30N 40°41' W 074°08'1 1.7
2017-Oct-19 23:00N 40°42' W 074°09'0 0.2
2017-Oct-19 22:30N 40°42' W 074°09'0 0.0
2017-Oct-19 21:59N 40°42' W 074°09'0 0.0
2017-Oct-19 21:30N 40°42' W 074°09'0 0.0
2017-Oct-19 21:00N 40°42' W 074°09'0 0.0
2017-Oct-19 20:30N 40°42' W 074°09'0 0.0
2017-Oct-19 19:59N 40°42' W 074°09'0 0.0
2017-Oct-19 19:30N 40°42' W 074°09'3 5.8
2017-Oct-19 19:00N 40°39' W 074°09'2 3.2
2017-Oct-19 18:30N 40°40' W 074°08'1 1.8
2017-Oct-19 18:00N 40°41' W 074°09'2 3.2
2017-Oct-19 17:30N 40°39' W 074°09'1 2.4
2017-Oct-19 17:00N 40°38' W 074°08'0 0.0
2017-Oct-19 16:30N 40°38' W 074°08'0 0.0
2017-Oct-19 16:00N 40°38' W 074°08'0 0.0
2017-Oct-19 15:30N 40°38' W 074°08'0 0.0
2017-Oct-19 15:00N 40°38' W 074°08'0 0.0
2017-Oct-19 14:30N 40°38' W 074°08'0 0.0
2017-Oct-19 14:00N 40°38' W 074°08'0 0.0
2017-Oct-19 13:30N 40°38' W 074°08'0 0.0
2017-Oct-19 13:00N 40°38' W 074°08'0 0.0
2017-Oct-19 12:30N 40°38' W 074°08'0 0.0
2017-Oct-19 12:00N 40°38' W 074°08'0 0.0
2017-Oct-19 11:30N 40°38' W 074°08'0 0.0
2017-Oct-19 11:00N 40°38' W 074°08'0 0.0
2017-Oct-19 10:30N 40°38' W 074°08'1 2.6
2017-Oct-19 10:00N 40°40' W 074°09'0 0.3
2017-Oct-19 09:30N 40°40' W 074°09'0 0.1
2017-Oct-19 09:00N 40°40' W 074°09'1 1.1
2017-Oct-19 08:30N 40°39' W 074°09'1 1.9
2017-Oct-19 07:54N 40°38' W 074°08'0 0.0
2017-Oct-19 07:30N 40°38' W 074°08'0 0.1
2017-Oct-19 07:00N 40°39' W 074°08'0 0.1
2017-Oct-19 06:30N 40°38' W 074°08'0 0.0
2017-Oct-19 06:00N 40°38' W 074°08'0 0.0
2017-Oct-19 05:30N 40°38' W 074°08'0 0.0
2017-Oct-19 05:00N 40°38' W 074°08'0 0.0
2017-Oct-19 04:30N 40°38' W 074°08'1 2.6
2017-Oct-19 04:00N 40°40' W 074°09'2 4.3
2017-Oct-19 03:30N 40°42' W 074°09'0 0.9
2017-Oct-19 02:59N 40°42' W 074°08'2 4.1
2017-Oct-19 02:30N 40°40' W 074°09'1 2.1
2017-Oct-19 02:00N 40°39' W 074°09'3 5.4
2017-Oct-19 01:30N 40°39' W 074°05'2 4.8
2017-Oct-19 01:01N 40°40' W 074°03'2 4.4
2017-Oct-19 00:31N 40°41' W 074°00'0 0.0
2017-Oct-19 00:00N 40°41' W 074°00'0 0.5
2017-Oct-18 23:31N 40°41' W 074°01'0 0.2
2017-Oct-18 23:00N 40°41' W 074°01'3 5.5
2017-Oct-18 22:30N 40°40' W 074°04'3 6.8
2017-Oct-18 22:00N 40°38' W 074°08'0 0.0
2017-Oct-18 21:30N 40°38' W 074°08'0 0.0
2017-Oct-18 21:01N 40°38' W 074°08'0 0.0
2017-Oct-18 20:30N 40°38' W 074°08'0 0.0
2017-Oct-18 20:00N 40°38' W 074°08'0 0.0
2017-Oct-18 19:30N 40°38' W 074°08'0 0.0
2017-Oct-18 18:30N 40°38' W 074°08'0 0.0
2017-Oct-18 18:00N 40°38' W 074°08'0 0.0
2017-Oct-18 17:30N 40°38' W 074°08'0 0.0
2017-Oct-18 17:00N 40°38' W 074°08'0 0.0
2017-Oct-18 16:30N 40°38' W 074°08'0 0.0
2017-Oct-18 16:00N 40°38' W 074°08'0 0.0
2017-Oct-18 15:31N 40°38' W 074°08'0 0.0
2017-Oct-18 15:00N 40°38' W 074°08'0 0.0
2017-Oct-18 14:00N 40°38' W 074°08'0 0.0
2017-Oct-18 13:30N 40°38' W 074°08'0 0.0
2017-Oct-18 13:01N 40°38' W 074°08'0 0.0
2017-Oct-18 12:30N 40°38' W 074°08'0 0.0
2017-Oct-18 12:00N 40°38' W 074°08'0 0.0
2017-Oct-18 11:30N 40°38' W 074°08'0 0.0
2017-Oct-18 11:00N 40°38' W 074°08'0 0.0
2017-Oct-18 10:31N 40°38' W 074°08'3 5.3
2017-Oct-18 10:01N 40°39' W 074°11'0 0.3
2017-Oct-18 09:30N 40°39' W 074°11'3 5.7
2017-Oct-18 09:00N 40°39' W 074°07'0 0.5
2017-Oct-18 08:30N 40°39' W 074°08'0 0.2
2017-Oct-18 08:00N 40°38' W 074°08'0 0.0
2017-Oct-18 07:31N 40°38' W 074°08'0 0.0
2017-Oct-18 07:00N 40°38' W 074°08'0 0.0
2017-Oct-18 06:30N 40°38' W 074°08'0 0.0
2017-Oct-18 06:00N 40°38' W 074°08'0 0.0
2017-Oct-18 05:30N 40°38' W 074°08'0 0.0
2017-Oct-18 05:00N 40°38' W 074°08'0 0.0
2017-Oct-18 04:30N 40°38' W 074°08'0 0.0
2017-Oct-18 04:00N 40°38' W 074°08'0 0.0
2017-Oct-18 03:30N 40°38' W 074°08'0 0.0
2017-Oct-18 03:01N 40°38' W 074°08'0 0.0
2017-Oct-18 02:30N 40°38' W 074°08'0 0.0
2017-Oct-18 02:00N 40°38' W 074°08'0 0.0
2017-Oct-18 01:31N 40°38' W 074°08'0 0.0
2017-Oct-18 01:01N 40°38' W 074°08'0 0.0
2017-Oct-18 00:30N 40°38' W 074°08'0 0.0
2017-Oct-18 00:01N 40°38' W 074°08'0 0.0
2017-Oct-17 23:30N 40°38' W 074°08'4 8.0
2017-Oct-17 23:00N 40°40' W 074°03'2 4.8
2017-Oct-17 22:30N 40°41' W 074°00'1 2.2
2017-Oct-17 22:00N 40°41' W 074°02'4 8.0
2017-Oct-17 21:30N 40°39' W 074°06'2 4.2
2017-Oct-17 21:00N 40°40' W 074°09'2 3.9
2017-Oct-17 20:30N 40°41' W 074°08'1 1.5
2017-Oct-17 20:00N 40°42' W 074°09'0 0.1
2017-Oct-17 19:30N 40°42' W 074°09'0 0.0
2017-Oct-17 19:00N 40°42' W 074°09'0 0.0
2017-Oct-17 18:30N 40°42' W 074°09'0 0.0
2017-Oct-17 18:00N 40°42' W 074°09'2 3.8
2017-Oct-17 17:30N 40°40' W 074°08'2 3.1
2017-Oct-17 16:59N 40°38' W 074°09'2 4.8
2017-Oct-17 16:30N 40°39' W 074°06'2 4.1
2017-Oct-17 16:00N 40°38' W 074°03'3 6.6
2017-Oct-17 15:30N 40°39' W 074°08'0 0.4
2017-Oct-17 15:00N 40°38' W 074°08'0 0.0
2017-Oct-17 14:30N 40°38' W 074°08'0 0.0
2017-Oct-17 14:01N 40°38' W 074°08'0 0.0
2017-Oct-17 13:31N 40°38' W 074°08'0 0.0
2017-Oct-17 13:01N 40°38' W 074°08'0 0.0
2017-Oct-17 12:30N 40°38' W 074°08'0 0.0
2017-Oct-17 12:00N 40°38' W 074°08'0 0.0
2017-Oct-17 11:30N 40°38' W 074°08'2 3.2
2017-Oct-17 11:00N 40°40' W 074°08'1 1.6
2017-Oct-17 10:30N 40°41' W 074°09'0 0.2
2017-Oct-17 10:00N 40°41' W 074°09'2 4.6
2017-Oct-17 09:30N 40°38' W 074°08'0 0.0
2017-Oct-17 09:00N 40°38' W 074°08'0 0.0
2017-Oct-17 08:30N 40°38' W 074°08'0 0.0
2017-Oct-17 08:00N 40°38' W 074°08'0 0.0
2017-Oct-17 07:00N 40°38' W 074°08'0 0.0
2017-Oct-17 06:31N 40°38' W 074°08'0 0.0
2017-Oct-17 06:00N 40°38' W 074°08'0 0.0
2017-Oct-17 05:30N 40°38' W 074°08'0 0.0
2017-Oct-17 05:00N 40°38' W 074°08'0 0.0
2017-Oct-17 04:30N 40°38' W 074°08'0 0.0
2017-Oct-17 04:00N 40°38' W 074°08'0 0.0
2017-Oct-17 03:30N 40°38' W 074°08'0 0.0
2017-Oct-17 03:01N 40°38' W 074°08'0 0.0
2017-Oct-17 02:30N 40°38' W 074°08'0 0.0
2017-Oct-17 02:00N 40°38' W 074°08'0 0.0
2017-Oct-17 01:30N 40°38' W 074°08'0 0.0
2017-Oct-17 01:00N 40°38' W 074°08'1 2.1
2017-Oct-17 00:30N 40°39' W 074°06'4 8.4
2017-Oct-17 00:01N 40°41' W 074°02'1 2.4
2017-Oct-16 23:30N 40°41' W 074°00'3 5.2
2017-Oct-16 23:01N 40°40' W 074°03'4 8.3
2017-Oct-16 22:30N 40°39' W 074°08'3 6.3
2017-Oct-16 22:00N 40°42' W 074°09'0 0.3
2017-Oct-16 21:30N 40°42' W 074°08'3 4.2
2017-Oct-16 20:44N 40°38' W 074°08'0 0.0
2017-Oct-16 20:21N 40°38' W 074°08'0 0.0
2017-Oct-16 20:00N 40°38' W 074°08'0 0.0
2017-Oct-16 19:30N 40°38' W 074°08'0 0.0
2017-Oct-16 19:00N 40°38' W 074°08'3 5.3
2017-Oct-16 18:30N 40°39' W 074°04'1 1.4
2017-Oct-16 18:01N 40°40' W 074°04'1 1.5
2017-Oct-16 17:30N 40°39' W 074°04'1 1.6
2017-Oct-16 17:00N 40°40' W 074°04'0 0.0
2017-Oct-16 16:31N 40°40' W 074°04'4 7.6
2017-Oct-16 16:00N 40°39' W 074°09'1 1.7
2017-Oct-16 15:28N 40°40' W 074°09'1 2.2
2017-Oct-16 15:00N 40°39' W 074°09'2 4.8
2017-Oct-16 14:30N 40°39' W 074°06'1 1.5
2017-Oct-16 13:30N 40°38' W 074°08'0 0.0
2017-Oct-16 13:00N 40°38' W 074°08'0 0.0
2017-Oct-16 12:30N 40°38' W 074°08'0 0.0
2017-Oct-16 12:00N 40°38' W 074°08'0 0.0
2017-Oct-16 11:30N 40°38' W 074°08'0 0.0
2017-Oct-16 11:01N 40°38' W 074°08'0 0.0
2017-Oct-16 10:30N 40°38' W 074°08'0 0.0
2017-Oct-16 10:00N 40°38' W 074°08'0 0.1
2017-Oct-16 09:27N 40°38' W 074°08'0 0.0
2017-Oct-16 09:00N 40°38' W 074°08'0 0.0
2017-Oct-16 08:27N 40°38' W 074°08'0 0.0
2017-Oct-16 08:00N 40°38' W 074°08'0 0.0
2017-Oct-16 07:30N 40°38' W 074°08'0 0.0
2017-Oct-16 07:00N 40°38' W 074°08'0 0.0
2017-Oct-16 06:30N 40°38' W 074°08'0 0.0
2017-Oct-16 06:00N 40°38' W 074°08'0 0.0
2017-Oct-16 05:27N 40°38' W 074°08'0 0.0
2017-Oct-16 05:00N 40°38' W 074°08'0 0.0
2017-Oct-16 04:30N 40°38' W 074°08'0 0.0
2017-Oct-16 04:00N 40°38' W 074°08'0 0.0
2017-Oct-16 03:31N 40°38' W 074°08'0 0.0
2017-Oct-16 03:00N 40°38' W 074°08'0 0.0
2017-Oct-16 02:30N 40°38' W 074°08'0 0.0
2017-Oct-16 02:00N 40°38' W 074°08'0 0.0
2017-Oct-16 01:30N 40°38' W 074°08'0 0.0
2017-Oct-16 01:00N 40°38' W 074°08'0 0.0
2017-Oct-16 00:30N 40°38' W 074°08'0 0.0
2017-Oct-16 00:00N 40°38' W 074°08'0 0.0
2017-Oct-15 23:30N 40°38' W 074°08'0 0.0
2017-Oct-15 23:00N 40°38' W 074°08'0 0.0
2017-Oct-15 22:30N 40°38' W 074°08'0 0.0
2017-Oct-15 22:00N 40°38' W 074°08'0 0.2
2017-Oct-15 21:30N 40°39' W 074°08'4 8.8
2017-Oct-15 21:01N 40°40' W 074°02'0 0.1
2017-Oct-15 20:30N 40°40' W 074°02'0 0.0
2017-Oct-15 19:54N 40°40' W 074°02'0 0.0
2017-Oct-15 19:30N 40°40' W 074°02'0 0.0
2017-Oct-15 19:00N 40°40' W 074°02'0 0.1
2017-Oct-15 18:30N 40°40' W 074°02'0 0.2
2017-Oct-15 18:00N 40°40' W 074°02'0 0.2
2017-Oct-15 17:30N 40°40' W 074°02'0 0.1
2017-Oct-15 17:00N 40°40' W 074°02'0 0.1
2017-Oct-15 16:30N 40°40' W 074°02'0 0.1
2017-Oct-15 16:00N 40°40' W 074°02'0 0.2
2017-Oct-15 15:28N 40°40' W 074°02'3 6.0
2017-Oct-15 15:00N 40°39' W 074°06'2 1.6
2017-Oct-15 13:58N 40°38' W 074°08'0 0.0
2017-Oct-15 13:28N 40°38' W 074°08'0 0.0
2017-Oct-15 12:58N 40°38' W 074°08'0 0.0
2017-Oct-15 12:28N 40°38' W 074°08'0 0.0
2017-Oct-15 11:58N 40°38' W 074°08'0 0.0
2017-Oct-15 11:28N 40°38' W 074°08'0 0.0
2017-Oct-15 10:58N 40°38' W 074°08'0 0.0
2017-Oct-15 10:25N 40°38' W 074°08'0 0.0
2017-Oct-15 09:58N 40°38' W 074°08'0 0.0
2017-Oct-15 09:28N 40°38' W 074°08'0 0.0
2017-Oct-15 08:58N 40°38' W 074°08'0 0.0
2017-Oct-15 08:28N 40°38' W 074°08'0 0.0
2017-Oct-15 07:58N 40°38' W 074°08'0 0.0
2017-Oct-15 07:28N 40°38' W 074°08'0 0.0
2017-Oct-15 06:55N 40°38' W 074°08'0 0.0
2017-Oct-15 06:28N 40°38' W 074°08'0 0.0
2017-Oct-15 05:58N 40°38' W 074°08'0 0.0
2017-Oct-15 05:28N 40°38' W 074°08'0 0.0
2017-Oct-15 04:58N 40°38' W 074°08'0 0.0
2017-Oct-15 04:28N 40°38' W 074°08'0 0.0
2017-Oct-15 03:58N 40°38' W 074°08'0 0.0
2017-Oct-15 03:28N 40°38' W 074°08'0 0.0
2017-Oct-15 02:58N 40°38' W 074°08'0 0.0
2017-Oct-15 02:25N 40°38' W 074°08'0 0.0
2017-Oct-15 01:58N 40°38' W 074°08'0 0.0
2017-Oct-15 01:25N 40°38' W 074°08'0 0.0
2017-Oct-15 00:58N 40°38' W 074°08'0 0.0
2017-Oct-15 00:22N 40°38' W 074°08'0 0.0
2017-Oct-14 23:55N 40°38' W 074°08'0 0.0
2017-Oct-14 23:28N 40°38' W 074°08'0 0.0
2017-Oct-14 22:58N 40°38' W 074°08'0 0.0
2017-Oct-14 22:28N 40°38' W 074°08'0 0.0
2017-Oct-14 21:58N 40°38' W 074°08'0 0.0
2017-Oct-14 21:28N 40°38' W 074°08'0 0.0
2017-Oct-14 20:49N 40°38' W 074°08'0 0.0
2017-Oct-14 20:28N 40°38' W 074°08'0 0.0
2017-Oct-14 19:58N 40°38' W 074°08'0 0.0
2017-Oct-14 19:25N 40°38' W 074°08'0 0.0
2017-Oct-14 18:55N 40°38' W 074°08'0 0.0
2017-Oct-14 18:28N 40°38' W 074°08'0 0.0
2017-Oct-14 17:58N 40°38' W 074°08'0 0.0
2017-Oct-14 17:28N 40°38' W 074°08'2 1.7
2017-Oct-14 16:30N 40°40' W 074°08'1 2.6
2017-Oct-14 16:00N 40°41' W 074°09'0 0.1
2017-Oct-14 15:28N 40°41' W 074°09'0 0.0
2017-Oct-14 14:59N 40°41' W 074°09'3 5.4
2017-Oct-14 14:30N 40°39' W 074°08'0 0.5
2017-Oct-14 13:59N 40°38' W 074°08'0 0.0
2017-Oct-14 13:29N 40°38' W 074°08'0 0.0
2017-Oct-14 12:59N 40°38' W 074°08'0 0.0
2017-Oct-14 12:29N 40°38' W 074°08'0 0.0
2017-Oct-14 11:56N 40°38' W 074°08'0 0.0
2017-Oct-14 11:29N 40°38' W 074°08'0 0.0
2017-Oct-14 10:59N 40°38' W 074°08'0 0.0
2017-Oct-14 10:29N 40°38' W 074°08'0 0.0
2017-Oct-14 09:59N 40°38' W 074°08'0 0.0
2017-Oct-14 09:29N 40°38' W 074°08'0 0.0
2017-Oct-14 08:59N 40°38' W 074°08'0 0.0
2017-Oct-14 08:29N 40°38' W 074°08'0 0.0
2017-Oct-14 07:59N 40°38' W 074°08'0 0.0
2017-Oct-14 07:29N 40°38' W 074°08'0 0.0
2017-Oct-14 06:56N 40°38' W 074°08'0 0.0
2017-Oct-14 06:29N 40°38' W 074°08'0 0.0
2017-Oct-14 05:59N 40°38' W 074°08'0 0.0
2017-Oct-14 05:29N 40°38' W 074°08'0 0.0
2017-Oct-14 04:59N 40°38' W 074°08'0 0.0
2017-Oct-14 04:29N 40°38' W 074°08'0 0.0
2017-Oct-14 03:59N 40°38' W 074°08'0 0.0
2017-Oct-14 03:29N 40°38' W 074°08'0 0.0
2017-Oct-14 02:56N 40°38' W 074°08'0 0.0
2017-Oct-14 02:23N 40°38' W 074°08'0 0.0
2017-Oct-14 01:59N 40°38' W 074°08'0 0.0
2017-Oct-14 01:29N 40°38' W 074°08'0 0.0
2017-Oct-14 00:59N 40°38' W 074°08'0 0.0
2017-Oct-14 00:29N 40°38' W 074°08'0 0.0
2017-Oct-13 23:59N 40°38' W 074°08'0 0.0
2017-Oct-13 23:29N 40°38' W 074°08'0 0.0
2017-Oct-13 22:59N 40°38' W 074°08'0 0.0
2017-Oct-13 22:29N 40°38' W 074°08'0 0.0
2017-Oct-13 21:59N 40°38' W 074°08'0 0.0
2017-Oct-13 21:29N 40°38' W 074°08'0 0.0
2017-Oct-13 20:56N 40°38' W 074°08'0 0.0
2017-Oct-13 20:26N 40°38' W 074°08'0 0.0
2017-Oct-13 19:59N 40°38' W 074°08'0 0.0
2017-Oct-13 19:29N 40°38' W 074°08'0 0.0
2017-Oct-13 18:50N 40°38' W 074°08'0 0.0
2017-Oct-13 18:26N 40°38' W 074°08'0 0.0
2017-Oct-13 17:59N 40°38' W 074°08'0 0.0
2017-Oct-13 17:29N 40°38' W 074°08'1 1.1
2017-Oct-13 17:00N 40°38' W 074°08'2 4.1
2017-Oct-13 16:30N 40°41' W 074°08'1 1.4
2017-Oct-13 15:59N 40°41' W 074°09'2 4.5
2017-Oct-13 15:29N 40°39' W 074°09'1 1.7
2017-Oct-13 15:00N 40°38' W 074°08'0 0.5
2017-Oct-13 14:30N 40°39' W 074°07'3 5.1
2017-Oct-13 14:00N 40°39' W 074°04'1 1.6
2017-Oct-13 13:27N 40°39' W 074°03'3 6.9
2017-Oct-13 13:00N 40°39' W 074°07'2 4.1
2017-Oct-13 12:30N 40°39' W 074°05'1 3.0
2017-Oct-13 12:00N 40°39' W 074°06'1 2.1
2017-Oct-13 11:30N 40°38' W 074°08'0 0.0
2017-Oct-13 10:56N 40°38' W 074°08'0 0.0
2017-Oct-13 10:29N 40°38' W 074°08'0 0.0
2017-Oct-13 10:00N 40°38' W 074°08'0 0.0
2017-Oct-13 09:27N 40°38' W 074°08'0 0.0
2017-Oct-13 09:00N 40°38' W 074°08'1 2.5
2017-Oct-13 08:30N 40°40' W 074°09'1 2.3
2017-Oct-13 08:00N 40°41' W 074°09'2 3.3
2017-Oct-13 07:30N 40°39' W 074°09'1 1.9
2017-Oct-13 07:00N 40°38' W 074°08'0 0.0
2017-Oct-13 06:25N 40°38' W 074°08'0 0.0
2017-Oct-13 05:58N 40°38' W 074°08'0 0.0
2017-Oct-13 05:28N 40°38' W 074°08'0 0.0
2017-Oct-13 04:58N 40°38' W 074°08'0 0.0
2017-Oct-13 04:25N 40°38' W 074°08'0 0.0
2017-Oct-13 03:58N 40°38' W 074°08'0 0.0
2017-Oct-13 03:28N 40°38' W 074°08'0 0.0
2017-Oct-13 02:55N 40°38' W 074°08'2 4.9
2017-Oct-13 02:30N 40°39' W 074°05'2 3.2
2017-Oct-13 01:57N 40°39' W 074°03'0 0.0
2017-Oct-13 01:26N 40°39' W 074°03'0 0.0
2017-Oct-13 00:57N 40°39' W 074°03'0 0.0
2017-Oct-13 00:30N 40°39' W 074°03'0 0.0
2017-Oct-12 23:57N 40°39' W 074°03'0 0.0
2017-Oct-12 23:30N 40°39' W 074°03'0 0.0
2017-Oct-12 22:59N 40°39' W 074°03'0 0.0
2017-Oct-12 22:30N 40°39' W 074°03'0 0.1
2017-Oct-12 21:59N 40°39' W 074°03'0 0.1
2017-Oct-12 21:30N 40°40' W 074°03'1 2.5
2017-Oct-12 21:00N 40°40' W 074°02'  

Dump ship's entire track history